Time;durP1;ratioP1;P1;durP2;ratioP2;P2;SDS_P1;SDS_P2;PMS_P1;PMS_P2;Temp;Humidity;BMP_temperature;BMP_pressure;BME280_temperature;BME280_humidity;BME280_pressure;Samples;Min_cycle;Max_cycle;Signal;HPM_P1;HPM_P2
2023/01/05 00:01:17;;;;;;;37.90;8.48;;;9.40;99.90;;;;;;5137300;27;20366;-50
2023/01/05 00:03:42;;;;;;;42.55;8.27;;;9.20;99.90;;;;;;5125110;27;20042;-48
2023/01/05 00:06:11;;;;;;;29.92;7.53;;;9.40;99.90;;;;;;5123105;27;20076;-47
2023/01/05 00:08:37;;;;;;;31.15;6.40;;;9.40;99.90;;;;;;5138794;27;20522;-47
2023/01/05 00:25:04;;;;;;;23.98;5.13;;;9.50;99.90;;;;;;5103933;27;20065;-50
2023/01/05 00:27:30;;;;;;;32.17;5.18;;;9.40;99.90;;;;;;5116330;27;20055;-46
2023/01/05 00:29:56;;;;;;;37.03;6.68;;;9.40;99.90;;;;;;5117841;27;20479;-48
2023/01/05 00:32:22;;;;;;;25.08;5.60;;;9.40;99.90;;;;;;5130003;27;20038;-49
2023/01/05 00:34:49;;;;;;;34.92;5.95;;;9.40;99.90;;;;;;5115351;27;20047;-47
2023/01/05 00:37:15;;;;;;;24.95;5.63;;;9.40;99.90;;;;;;5117938;27;20461;-45
2023/01/05 00:39:41;;;;;;;28.27;5.55;;;9.40;99.90;;;;;;5117282;27;20031;-47
2023/01/05 00:42:07;;;;;;;22.95;6.55;;;9.40;99.90;;;;;;5119363;27;20732;-48
2023/01/05 00:44:32;;;;;;;27.77;6.78;;;9.30;99.90;;;;;;5126074;27;20046;-49
2023/01/05 00:46:58;;;;;;;21.27;5.65;;;9.30;99.90;;;;;;5134960;27;20126;-49
2023/01/05 00:49:24;;;;;;;33.40;5.85;;;9.40;99.90;;;;;;5127426;27;20154;-48
2023/01/05 00:51:49;;;;;;;34.35;6.03;;;9.30;99.90;;;;;;5130373;27;20035;-52
2023/01/05 00:54:15;;;;;;;23.02;5.45;;;9.40;99.90;;;;;;5117347;27;20244;-47
2023/01/05 00:56:40;;;;;;;27.73;6.75;;;9.50;99.90;;;;;;5099921;27;20886;-47
2023/01/05 00:59:06;;;;;;;28.92;5.95;;;9.50;99.90;;;;;;5126777;27;20384;-51
2023/01/05 01:01:32;;;;;;;23.65;6.15;;;9.50;99.90;;;;;;5121856;27;20531;-48
2023/01/05 01:03:57;;;;;;;28.23;6.20;;;9.50;99.90;;;;;;5116699;27;20467;-47
2023/01/05 01:06:23;;;;;;;26.00;5.65;;;9.50;99.90;;;;;;5117763;27;20123;-48
2023/01/05 01:08:49;;;;;;;32.03;7.00;;;9.50;99.90;;;;;;5110043;27;20122;-49
2023/01/05 01:11:18;;;;;;;27.80;5.63;;;9.40;99.90;;;;;;5119038;27;20452;-46
2023/01/05 01:13:44;;;;;;;26.85;5.80;;;9.40;99.90;;;;;;5129687;27;20095;-48
2023/01/05 01:16:13;;;;;;;27.30;5.30;;;9.50;99.90;;;;;;5117398;27;20043;-48
2023/01/05 01:18:39;;;;;;;32.78;7.53;;;9.50;99.90;;;;;;5137557;27;20139;-46
2023/01/05 01:21:06;;;;;;;36.10;7.50;;;9.50;99.90;;;;;;5104232;27;20839;-49
2023/01/05 01:23:38;;;;;;;29.75;5.78;;;9.50;99.90;;;;;;5127740;27;20574;-50
2023/01/05 01:26:08;;;;;;;33.08;6.30;;;9.50;99.90;;;;;;5128360;27;20079;-51
2023/01/05 01:28:34;;;;;;;29.10;6.57;;;9.50;99.90;;;;;;5127042;27;20046;-49
2023/01/05 01:31:00;;;;;;;29.42;6.18;;;9.50;99.90;;;;;;5131905;27;20107;-51
2023/01/05 01:33:27;;;;;;;29.80;5.57;;;9.50;99.90;;;;;;5126512;27;20051;-51
2023/01/05 01:35:52;;;;;;;26.00;5.63;;;9.50;99.90;;;;;;5116886;27;20057;-49
2023/01/05 01:38:18;;;;;;;24.90;6.05;;;9.50;99.90;;;;;;5115736;27;20039;-47
2023/01/05 01:40:46;;;;;;;25.17;5.50;;;9.50;99.90;;;;;;5115985;27;20118;-47
2023/01/05 01:43:15;;;;;;;33.88;6.97;;;9.50;99.90;;;;;;5116333;27;20050;-49
2023/01/05 01:45:41;;;;;;;35.78;7.35;;;9.40;99.90;;;;;;5100775;27;20038;-47
2023/01/05 01:48:10;;;;;;;26.05;6.90;;;9.50;99.90;;;;;;5125878;27;20138;-50
2023/01/05 01:50:52;;;;;;;32.85;6.80;;;9.40;99.90;;;;;;5120059;27;20043;-46
2023/01/05 01:53:24;;;;;;;35.97;6.50;;;9.40;99.90;;;;;;5135782;27;20485;-47
2023/01/05 01:55:52;;;;;;;28.80;6.38;;;9.40;99.90;;;;;;5122373;27;20053;-48
2023/01/05 01:58:20;;;;;;;23.00;5.32;;;9.40;99.90;;;;;;5119556;27;20143;-46
2023/01/05 02:00:46;;;;;;;32.08;6.28;;;9.40;99.90;;;;;;5097477;28;20051;-48
2023/01/05 02:03:13;;;;;;;28.17;6.15;;;9.40;99.90;;;;;;5097150;27;20597;-49
2023/01/05 02:05:39;;;;;;;32.05;7.10;;;9.40;99.90;;;;;;5123486;27;20043;-51
2023/01/05 02:08:12;;;;;;;26.33;4.60;;;9.40;99.90;;;;;;5117692;27;20051;-50
2023/01/05 02:11:15;;;;;;;25.80;6.15;;;9.40;99.90;;;;;;5136709;27;20042;-47
2023/01/05 02:14:05;;;;;;;28.17;6.63;;;9.40;99.90;;;;;;5097421;28;20039;-52
2023/01/05 02:17:04;;;;;;;31.23;6.53;;;9.40;99.90;;;;;;5114362;27;20075;-48
2023/01/05 02:20:20;;;;;;;32.72;7.25;;;9.30;99.90;;;;;;5118028;27;20089;-49
2023/01/05 02:23:26;;;;;;;32.17;6.38;;;9.30;99.90;;;;;;5020750;28;20060;-50
2023/01/05 02:26:18;;;;;;;37.45;6.25;;;9.40;99.90;;;;;;5000964;28;20045;-47
2023/01/05 02:28:58;;;;;;;31.98;6.63;;;9.30;99.90;;;;;;5016606;28;20504;-50
2023/01/05 02:31:29;;;;;;;35.40;6.28;;;9.30;99.90;;;;;;5018882;28;20120;-50
2023/01/05 02:34:16;;;;;;;26.38;6.20;;;9.30;99.90;;;;;;5017378;28;20095;-51
2023/01/05 02:37:05;;;;;;;30.63;6.28;;;9.20;99.90;;;;;;5019628;28;20088;-47
2023/01/05 02:39:37;;;;;;;27.77;6.60;;;9.20;99.90;;;;;;5022894;28;20602;-49
2023/01/05 02:42:23;;;;;;;33.17;6.07;;;9.20;99.90;;;;;;5026222;28;20103;-48
2023/01/05 02:44:49;;;;;;;30.02;7.68;;;9.20;99.90;;;;;;5029888;28;20515;-47
2023/01/05 02:47:24;;;;;;;33.70;6.72;;;9.10;99.90;;;;;;5014819;28;20049;-47
2023/01/05 02:49:58;;;;;;;33.63;7.03;;;9.20;99.90;;;;;;5021114;28;20092;-47
2023/01/05 02:52:26;;;;;;;28.55;6.88;;;9.20;99.90;;;;;;5024641;27;20099;-48
2023/01/05 02:54:56;;;;;;;41.72;6.80;;;9.20;99.90;;;;;;5118731;27;20364;-48
2023/01/05 02:57:45;;;;;;;29.25;5.78;;;9.10;99.90;;;;;;5126601;27;20050;-47
2023/01/05 03:00:16;;;;;;;30.48;6.72;;;9.10;99.90;;;;;;5114977;27;20043;-52
2023/01/05 03:02:47;;;;;;;36.58;6.30;;;9.20;99.90;;;;;;5119259;27;20457;-51
2023/01/05 03:05:17;;;;;;;34.90;6.07;;;9.10;99.90;;;;;;5123324;27;20047;-47
2023/01/05 03:07:45;;;;;;;28.73;5.53;;;9.10;99.90;;;;;;5137822;27;20054;-47
2023/01/05 03:15:50;;;;;;;32.80;7.88;;;9.20;99.90;;;;;;5129989;27;20450;-47
2023/01/05 03:18:19;;;;;;;38.25;6.45;;;9.20;99.90;;;;;;5125443;27;20043;-51
2023/01/05 03:20:48;;;;;;;31.40;6.28;;;9.20;99.90;;;;;;5126669;27;20126;-47
2023/01/05 03:38:08;;;;;;;29.85;6.30;;;9.20;99.90;;;;;;5124324;27;20510;-51
2023/01/05 03:40:37;;;;;;;30.05;6.93;;;9.10;99.90;;;;;;5124084;27;20057;-47
2023/01/05 03:43:03;;;;;;;28.30;5.65;;;9.20;99.90;;;;;;5129214;27;20177;-47
2023/01/05 03:45:42;;;;;;;32.10;6.43;;;9.10;99.90;;;;;;5116409;27;20054;-46
2023/01/05 03:48:08;;;;;;;36.33;7.13;;;9.10;99.90;;;;;;5100063;27;20039;-47
2023/01/05 03:50:34;;;;;;;38.65;6.78;;;9.10;99.90;;;;;;5122753;27;20045;-46
2023/01/05 03:53:00;;;;;;;37.85;5.85;;;9.20;99.90;;;;;;5118486;27;20043;-51
2023/01/05 03:55:26;;;;;;;31.33;6.07;;;9.20;99.90;;;;;;5123218;27;20519;-50
2023/01/05 03:57:52;;;;;;;37.80;5.85;;;9.10;99.90;;;;;;5126351;27;20047;-49
2023/01/05 04:00:18;;;;;;;31.65;6.32;;;9.20;99.90;;;;;;5130657;27;20100;-51
2023/01/05 04:02:43;;;;;;;31.38;5.85;;;9.20;99.90;;;;;;5129253;27;20050;-47
2023/01/05 04:05:09;;;;;;;33.60;7.07;;;9.30;99.90;;;;;;5122888;27;20421;-51
2023/01/05 04:07:35;;;;;;;32.35;6.57;;;9.20;99.90;;;;;;5119188;27;20932;-48
2023/01/05 04:10:01;;;;;;;34.88;6.45;;;9.30;99.90;;;;;;5132698;27;20043;-49
2023/01/05 04:12:26;;;;;;;33.13;6.80;;;9.20;99.90;;;;;;5128710;27;20046;-48
2023/01/05 04:14:52;;;;;;;26.83;6.43;;;9.20;99.90;;;;;;5117934;27;20070;-47
2023/01/05 04:17:18;;;;;;;26.15;5.22;;;9.20;99.90;;;;;;5128471;27;20131;-45
2023/01/05 04:19:43;;;;;;;20.05;5.38;;;9.30;99.90;;;;;;5137432;27;20134;-48
2023/01/05 04:22:09;;;;;;;30.15;6.60;;;9.20;99.90;;;;;;5126808;27;20033;-51
2023/01/05 04:24:34;;;;;;;29.45;4.82;;;9.20;99.90;;;;;;5119323;27;20485;-49
2023/01/05 04:27:00;;;;;;;27.10;5.80;;;9.20;99.90;;;;;;5126412;27;20512;-49
2023/01/05 04:29:26;;;;;;;26.75;4.68;;;9.20;99.90;;;;;;5098660;27;20405;-52
2023/01/05 04:31:51;;;;;;;21.05;4.47;;;9.30;99.90;;;;;;5116661;27;20693;-50
2023/01/05 04:34:17;;;;;;;23.35;5.38;;;9.30;99.90;;;;;;5129515;27;20046;-52
2023/01/05 04:36:43;;;;;;;27.15;6.53;;;9.30;99.90;;;;;;5127242;27;20077;-51
2023/01/05 04:39:08;;;;;;;30.27;5.60;;;9.20;99.90;;;;;;5133107;27;20043;-49
2023/01/05 04:41:34;;;;;;;28.70;5.93;;;9.30;99.90;;;;;;5127101;27;20045;-49
2023/01/05 04:43:59;;;;;;;27.30;6.13;;;9.20;99.90;;;;;;5119010;27;20043;-52
2023/01/05 04:46:25;;;;;;;23.13;4.75;;;9.30;99.90;;;;;;5126943;27;20080;-50
2023/01/05 04:48:51;;;;;;;27.83;5.53;;;9.30;99.90;;;;;;5132772;27;20108;-49
2023/01/05 04:51:16;;;;;;;27.95;5.63;;;9.20;99.90;;;;;;5128185;27;20508;-50
2023/01/05 04:53:42;;;;;;;27.85;5.72;;;9.20;99.90;;;;;;5104536;27;20484;-50
2023/01/05 04:56:09;;;;;;;24.77;5.57;;;9.30;99.90;;;;;;5118081;27;20043;-49
2023/01/05 04:58:35;;;;;;;28.80;5.90;;;9.30;99.90;;;;;;5104630;27;20042;-49
2023/01/05 05:01:01;;;;;;;25.30;7.05;;;9.20;99.90;;;;;;5125034;27;20491;-47
2023/01/05 05:03:27;;;;;;;32.10;6.95;;;9.20;99.90;;;;;;5118451;27;20042;-52
2023/01/05 05:05:52;;;;;;;30.40;5.10;;;9.30;99.90;;;;;;5122241;27;20043;-49
2023/01/05 05:08:18;;;;;;;23.67;5.88;;;9.20;99.90;;;;;;5130265;27;20122;-50
2023/01/05 05:10:43;;;;;;;27.48;5.55;;;9.20;99.90;;;;;;5115978;27;20381;-48
2023/01/05 05:13:09;;;;;;;23.60;5.72;;;9.30;99.90;;;;;;5129565;27;20062;-48
2023/01/05 05:15:35;;;;;;;29.58;5.78;;;9.20;99.90;;;;;;5125451;27;20046;-46
2023/01/05 05:18:01;;;;;;;32.05;7.20;;;9.20;99.90;;;;;;5132441;27;20082;-47
2023/01/05 05:20:26;;;;;;;28.67;5.47;;;9.20;99.90;;;;;;5115597;27;20778;-47
2023/01/05 05:22:52;;;;;;;28.48;5.82;;;9.20;99.90;;;;;;5132831;27;20049;-49
2023/01/05 05:25:17;;;;;;;24.98;6.45;;;9.20;99.90;;;;;;5135518;27;20047;-50
2023/01/05 05:27:44;;;;;;;29.52;5.97;;;9.20;99.90;;;;;;5122933;27;20473;-47
2023/01/05 05:30:10;;;;;;;20.30;5.82;;;9.20;99.90;;;;;;5136461;27;20155;-53
2023/01/05 05:32:36;;;;;;;29.42;5.22;;;9.20;99.90;;;;;;5131872;27;20082;-51
2023/01/05 05:35:01;;;;;;;21.58;5.97;;;9.20;99.90;;;;;;5114139;27;20043;-52
2023/01/05 05:37:27;;;;;;;29.40;5.72;;;9.20;99.90;;;;;;5128889;27;20051;-50
2023/01/05 05:39:53;;;;;;;27.85;5.82;;;9.20;99.90;;;;;;5125316;27;20047;-49
2023/01/05 05:42:18;;;;;;;28.75;5.60;;;9.20;99.90;;;;;;5115155;27;20641;-52
2023/01/05 05:44:44;;;;;;;28.17;5.65;;;9.20;99.90;;;;;;5135370;27;20147;-51
2023/01/05 05:47:09;;;;;;;25.33;5.15;;;9.20;99.90;;;;;;5133028;27;20047;-52
2023/01/05 05:49:35;;;;;;;28.17;6.20;;;9.20;99.90;;;;;;5125952;27;20034;-50
2023/01/05 05:52:01;;;;;;;24.17;5.13;;;9.30;99.90;;;;;;5121903;27;20087;-49
2023/01/05 05:54:26;;;;;;;32.08;6.15;;;9.20;99.90;;;;;;5123786;27;20043;-49
2023/01/05 05:56:52;;;;;;;28.05;5.53;;;9.30;99.90;;;;;;5119257;27;20107;-48
2023/01/05 05:59:18;;;;;;;34.92;6.68;;;9.20;99.90;;;;;;5106567;27;20046;-51
2023/01/05 06:01:43;;;;;;;31.65;6.18;;;9.20;99.90;;;;;;5109833;27;20043;-50
2023/01/05 06:04:10;;;;;;;32.40;6.40;;;9.20;99.90;;;;;;5126153;27;20043;-47
2023/01/05 06:06:36;;;;;;;26.90;5.32;;;9.20;99.90;;;;;;5121179;27;20050;-51
2023/01/05 06:09:01;;;;;;;35.92;6.13;;;9.20;99.90;;;;;;5135559;27;20064;-52
2023/01/05 06:11:27;;;;;;;27.48;4.78;;;9.20;99.90;;;;;;5121125;27;20038;-51
2023/01/05 06:13:53;;;;;;;40.53;7.70;;;9.20;99.90;;;;;;5123874;27;20510;-50
2023/01/05 06:16:18;;;;;;;32.13;5.97;;;9.30;99.90;;;;;;5113288;27;20427;-50
2023/01/05 06:18:44;;;;;;;25.77;6.10;;;9.30;99.90;;;;;;5124675;27;20114;-51
2023/01/05 06:21:10;;;;;;;26.85;5.40;;;9.20;99.90;;;;;;5122289;27;20816;-49
2023/01/05 06:23:35;;;;;;;29.90;6.75;;;9.20;99.90;;;;;;5119488;27;20059;-48
2023/01/05 06:26:01;;;;;;;28.00;6.00;;;9.20;99.90;;;;;;5124844;27;20045;-51
2023/01/05 06:28:26;;;;;;;28.30;6.15;;;9.20;99.90;;;;;;5130588;27;20043;-48
2023/01/05 06:30:52;;;;;;;22.58;4.82;;;9.20;99.90;;;;;;5118626;27;20047;-49
2023/01/05 06:33:18;;;;;;;26.27;6.78;;;9.20;99.90;;;;;;5119631;27;20081;-50
2023/01/05 06:35:43;;;;;;;26.33;5.22;;;9.10;99.90;;;;;;5118862;27;20039;-49
2023/01/05 06:38:09;;;;;;;29.95;5.63;;;9.20;99.90;;;;;;5139130;27;20084;-47
2023/01/05 06:40:35;;;;;;;20.25;5.57;;;9.20;99.90;;;;;;5106576;27;20043;-51
2023/01/05 06:43:01;;;;;;;30.63;6.07;;;9.20;99.90;;;;;;5120160;27;20047;-50
2023/01/05 06:45:27;;;;;;;29.58;6.03;;;9.30;99.90;;;;;;5123381;27;20039;-51
2023/01/05 06:47:52;;;;;;;24.40;5.07;;;9.20;99.90;;;;;;5120318;27;20714;-51
2023/01/05 06:50:18;;;;;;;26.55;5.43;;;9.30;99.90;;;;;;5121482;27;20574;-50
2023/01/05 06:52:43;;;;;;;28.40;5.53;;;9.30;99.90;;;;;;5131119;27;20043;-49
2023/01/05 06:55:11;;;;;;;23.00;5.30;;;9.30;99.90;;;;;;5120208;27;20043;-50
2023/01/05 06:57:36;;;;;;;27.60;5.18;;;9.30;99.90;;;;;;5128302;27;20117;-50
2023/01/05 07:00:09;;;;;;;31.35;6.95;;;9.30;99.90;;;;;;5124738;27;20245;-49
2023/01/05 07:02:35;;;;;;;28.98;5.75;;;9.40;99.90;;;;;;5138869;27;20078;-51
2023/01/05 07:05:00;;;;;;;30.65;5.50;;;9.30;99.90;;;;;;5124591;27;20122;-50
2023/01/05 07:07:26;;;;;;;29.08;5.07;;;9.30;99.90;;;;;;5129237;27;20062;-50
2023/01/05 07:09:52;;;;;;;24.67;4.65;;;9.30;99.90;;;;;;5113441;27;20043;-50
2023/01/05 07:12:17;;;;;;;26.95;5.40;;;9.30;99.90;;;;;;5127791;27;20043;-49
2023/01/05 07:14:43;;;;;;;22.83;4.93;;;9.30;99.90;;;;;;5120812;27;20496;-48
2023/01/05 07:17:11;;;;;;;20.40;4.60;;;9.30;99.90;;;;;;5128691;27;20413;-48
2023/01/05 07:19:37;;;;;;;26.77;6.10;;;9.30;99.90;;;;;;5125596;27;20585;-53
2023/01/05 07:22:03;;;;;;;26.80;5.43;;;9.20;99.90;;;;;;5128051;27;20143;-47
2023/01/05 07:24:28;;;;;;;25.90;4.75;;;9.20;99.90;;;;;;5130777;27;20378;-47
2023/01/05 07:26:54;;;;;;;18.20;3.75;;;9.10;99.90;;;;;;5118321;27;20092;-48
2023/01/05 07:29:20;;;;;;;30.05;4.78;;;9.10;99.90;;;;;;5121439;27;20567;-48
2023/01/05 07:31:47;;;;;;;22.70;5.72;;;9.10;99.90;;;;;;5119601;27;20068;-47
2023/01/05 07:34:13;;;;;;;22.38;3.97;;;9.10;99.90;;;;;;5137348;27;20091;-48
2023/01/05 07:36:38;;;;;;;25.35;5.85;;;9.00;99.90;;;;;;5128093;27;20458;-50
2023/01/05 07:39:04;;;;;;;22.75;4.80;;;9.00;99.90;;;;;;5131872;27;20370;-51
2023/01/05 07:41:31;;;;;;;25.38;5.82;;;9.00;99.90;;;;;;5128362;27;20046;-47
2023/01/05 07:43:56;;;;;;;23.75;4.78;;;9.00;99.90;;;;;;5121879;27;20560;-48
2023/01/05 07:46:22;;;;;;;29.42;5.22;;;9.10;99.90;;;;;;5128320;27;20047;-46
2023/01/05 07:48:48;;;;;;;29.45;6.53;;;9.10;99.90;;;;;;5138487;27;20051;-52
2023/01/05 07:51:14;;;;;;;25.38;5.63;;;9.10;99.90;;;;;;5128310;27;20031;-50
2023/01/05 07:53:39;;;;;;;27.83;5.95;;;9.10;99.90;;;;;;5115525;27;20562;-48
2023/01/05 07:56:06;;;;;;;26.80;5.50;;;9.10;99.90;;;;;;5108665;27;20838;-51
2023/01/05 07:58:32;;;;;;;21.38;5.05;;;9.10;99.90;;;;;;5100049;27;20968;-47
2023/01/05 08:01:03;;;;;;;28.10;5.60;;;9.20;99.90;;;;;;5118984;27;20435;-50
2023/01/05 08:03:30;;;;;;;24.30;5.68;;;9.10;99.90;;;;;;5135858;27;20069;-48
2023/01/05 08:05:55;;;;;;;22.02;4.72;;;9.20;99.90;;;;;;5137302;27;21124;-49
2023/01/05 08:08:21;;;;;;;33.78;5.30;;;9.10;99.90;;;;;;5117318;27;20578;-47
2023/01/05 08:10:47;;;;;;;25.23;4.57;;;9.20;99.90;;;;;;5125806;27;20085;-51
2023/01/05 08:15:59;;;;;;;27.20;4.95;;;9.10;99.90;;;;;;5116436;27;20050;-51
2023/01/05 08:18:25;;;;;;;27.02;5.25;;;9.20;99.90;;;;;;5123281;27;20050;-47
2023/01/05 08:20:52;;;;;;;22.13;5.60;;;9.10;99.90;;;;;;5137570;27;20395;-49
2023/01/05 08:23:18;;;;;;;24.80;5.57;;;9.20;99.90;;;;;;5129762;27;20504;-47
2023/01/05 08:25:43;;;;;;;27.33;5.07;;;9.20;99.90;;;;;;5111606;27;20125;-52
2023/01/05 08:28:09;;;;;;;29.45;6.75;;;9.20;99.90;;;;;;5117325;27;20503;-51
2023/01/05 08:30:35;;;;;;;26.65;8.07;;;9.30;99.90;;;;;;5131193;27;20039;-49
2023/01/05 08:33:00;;;;;;;35.28;7.53;;;9.20;99.90;;;;;;5130497;27;20332;-51
2023/01/05 08:35:26;;;;;;;30.27;7.15;;;9.20;99.90;;;;;;5116302;27;20499;-48
2023/01/05 08:37:51;;;;;;;28.50;6.30;;;9.20;99.90;;;;;;5117572;27;20507;-50
2023/01/05 08:40:17;;;;;;;27.52;5.78;;;9.30;99.90;;;;;;5129412;27;20395;-50
2023/01/05 08:42:46;;;;;;;28.55;5.82;;;9.30;99.90;;;;;;5129893;27;20088;-52
2023/01/05 08:45:15;;;;;;;22.75;5.72;;;9.30;99.90;;;;;;5110649;27;20046;-49
2023/01/05 08:47:41;;;;;;;24.20;4.55;;;9.30;99.90;;;;;;5128189;27;20421;-52
2023/01/05 08:50:08;;;;;;;27.27;5.63;;;9.30;99.90;;;;;;5126787;27;20042;-47
2023/01/05 08:52:38;;;;;;;30.77;5.85;;;9.30;99.90;;;;;;5124075;27;20030;-51
2023/01/05 08:55:06;;;;;;;31.52;6.10;;;9.30;99.90;;;;;;5119980;27;20043;-49
2023/01/05 08:57:33;;;;;;;26.70;5.53;;;9.30;99.90;;;;;;5122761;27;20047;-50
2023/01/05 08:59:58;;;;;;;26.13;5.32;;;9.30;99.90;;;;;;5131100;27;20034;-48
2023/01/05 09:02:25;;;;;;;27.23;5.85;;;9.30;99.90;;;;;;5119586;27;20031;-50
2023/01/05 09:04:50;;;;;;;25.38;4.50;;;9.30;99.90;;;;;;5099214;27;20091;-49
2023/01/05 09:07:16;;;;;;;25.67;5.68;;;9.30;99.90;;;;;;5108715;27;20051;-47
2023/01/05 09:09:42;;;;;;;26.08;4.72;;;9.40;99.90;;;;;;5126506;27;20054;-49
2023/01/05 09:12:07;;;;;;;25.90;4.57;;;9.40;99.90;;;;;;5111864;27;20030;-49
2023/01/05 09:14:33;;;;;;;25.00;4.43;;;9.50;99.90;;;;;;5122298;27;20484;-48
2023/01/05 09:16:59;;;;;;;24.23;5.70;;;9.50;99.90;;;;;;5133107;27;20045;-46
2023/01/05 09:19:25;;;;;;;25.52;4.70;;;9.40;99.90;;;;;;5121637;27;20038;-48
2023/01/05 09:21:52;;;;;;;24.80;6.18;;;9.40;99.90;;;;;;5115559;27;20060;-48
2023/01/05 09:24:18;;;;;;;24.25;5.80;;;9.40;99.90;;;;;;5102633;27;20132;-52
2023/01/05 09:26:44;;;;;;;30.40;5.65;;;9.40;99.90;;;;;;5127993;27;20039;-45
2023/01/05 09:29:10;;;;;;;21.65;5.80;;;9.40;99.90;;;;;;5129066;27;20039;-46
2023/01/05 09:31:36;;;;;;;28.05;5.35;;;9.50;99.90;;;;;;5124955;27;20395;-48
2023/01/05 09:34:02;;;;;;;28.77;5.60;;;9.50;99.90;;;;;;5132931;27;20043;-52
2023/01/05 09:36:28;;;;;;;30.88;5.30;;;9.50;99.90;;;;;;5124618;27;20042;-47
2023/01/05 09:38:58;;;;;;;31.30;6.20;;;9.40;99.90;;;;;;5103903;27;20515;-48
2023/01/05 09:41:43;;;;;;;26.00;5.05;;;9.50;99.90;;;;;;5136386;27;20035;-47
2023/01/05 09:44:25;;;;;;;25.17;5.60;;;9.50;99.90;;;;;;5119652;27;20366;-46
2023/01/05 09:46:53;;;;;;;30.50;6.40;;;9.50;99.90;;;;;;5123733;27;20120;-48
2023/01/05 09:49:21;;;;;;;29.20;5.57;;;9.60;99.90;;;;;;5124814;27;20114;-48
2023/01/05 09:51:54;;;;;;;21.63;4.75;;;9.50;99.90;;;;;;5109510;27;20039;-51
2023/01/05 09:54:22;;;;;;;24.38;5.40;;;9.50;99.90;;;;;;5122756;27;20035;-47
2023/01/05 09:56:49;;;;;;;26.40;5.25;;;9.50;99.90;;;;;;5113324;27;20171;-51
2023/01/05 09:59:24;;;;;;;31.95;6.03;;;9.50;99.90;;;;;;5124185;27;20465;-46
2023/01/05 10:01:51;;;;;;;26.52;5.50;;;9.50;99.90;;;;;;5114737;27;20138;-47
2023/01/05 10:04:25;;;;;;;25.20;4.63;;;9.60;99.90;;;;;;5126164;27;20047;-48
2023/01/05 10:07:03;;;;;;;26.08;4.40;;;9.60;99.90;;;;;;5123219;27;20119;-48
2023/01/05 10:09:38;;;;;;;25.38;5.22;;;9.70;99.90;;;;;;5115168;27;20058;-54
2023/01/05 10:15:29;;;;;;;24.33;6.85;;;9.60;99.90;;;;;;5078551;22;20911;-49
2023/01/05 10:17:55;;;;;;;25.63;6.15;;;9.70;99.90;;;;;;5020521;28;20114;-50
2023/01/05 10:20:34;;;;;;;24.42;5.90;;;9.70;99.90;;;;;;4999850;28;20049;-49
2023/01/05 10:23:26;;;;;;;23.48;4.75;;;9.80;99.90;;;;;;5032332;28;20057;-48
2023/01/05 10:26:01;;;;;;;30.33;6.55;;;9.80;99.90;;;;;;5018390;28;20049;-49
2023/01/05 10:29:02;;;;;;;21.80;6.20;;;9.80;99.90;;;;;;5028678;28;20392;-49
2023/01/05 10:31:53;;;;;;;25.48;5.60;;;9.90;99.90;;;;;;4967364;28;20457;-48
2023/01/05 10:34:23;;;;;;;20.38;4.78;;;10.00;99.90;;;;;;4971862;28;20120;-51
2023/01/05 10:36:58;;;;;;;20.63;4.88;;;9.90;99.90;;;;;;4969659;28;20577;-48
2023/01/05 10:39:52;;;;;;;30.02;5.80;;;10.00;99.90;;;;;;4969614;28;20054;-50
2023/01/05 10:42:33;;;;;;;24.25;4.57;;;10.00;99.90;;;;;;4931250;28;20138;-50
2023/01/05 10:45:03;;;;;;;24.13;5.05;;;10.00;99.90;;;;;;4926074;28;20048;-51
2023/01/05 10:47:34;;;;;;;28.02;7.13;;;9.90;99.90;;;;;;4928956;28;20082;-47
2023/01/05 10:50:01;;;;;;;28.30;5.80;;;9.90;99.90;;;;;;4923022;28;20063;-49
2023/01/05 10:52:28;;;;;;;30.92;6.00;;;10.00;99.90;;;;;;4929562;28;20104;-48
2023/01/05 10:54:59;;;;;;;24.50;5.03;;;10.00;99.90;;;;;;4900928;29;20570;-48
2023/01/05 10:57:27;;;;;;;24.38;6.38;;;10.00;99.90;;;;;;4930597;29;20043;-51
2023/01/05 10:59:58;;;;;;;32.13;8.27;;;9.90;99.90;;;;;;4929538;29;20078;-48
2023/01/05 11:02:27;;;;;;;28.08;8.38;;;10.10;99.90;;;;;;4928526;29;20051;-49
2023/01/05 11:04:54;;;;;;;22.27;5.95;;;10.10;99.90;;;;;;4928500;29;20172;-48
2023/01/05 11:07:21;;;;;;;25.52;5.47;;;10.10;99.90;;;;;;4933136;28;20062;-50
2023/01/05 11:09:47;;;;;;;20.70;4.65;;;10.10;99.90;;;;;;4962609;28;20298;-50
2023/01/05 11:12:16;;;;;;;25.00;4.28;;;10.10;99.90;;;;;;4993474;28;20143;-49
2023/01/05 11:14:46;;;;;;;17.75;4.10;;;10.10;99.90;;;;;;4975005;28;20050;-51
2023/01/05 11:17:18;;;;;;;23.98;5.25;;;10.10;99.90;;;;;;4992943;28;20428;-48
2023/01/05 11:19:49;;;;;;;24.58;4.55;;;10.10;99.90;;;;;;5014392;28;20072;-50
2023/01/05 11:22:35;;;;;;;23.42;4.57;;;10.20;99.90;;;;;;5002428;28;20145;-47
2023/01/05 11:25:25;;;;;;;23.08;4.88;;;10.20;99.90;;;;;;5034151;28;20053;-49
2023/01/05 11:28:16;;;;;;;17.55;5.65;;;10.20;99.90;;;;;;5036694;28;20334;-48
2023/01/05 11:31:04;;;;;;;25.83;4.70;;;10.20;99.90;;;;;;5038264;28;20049;-48
2023/01/05 11:33:33;;;;;;;21.30;5.60;;;10.20;99.90;;;;;;5037700;28;20049;-47
2023/01/05 11:36:00;;;;;;;22.13;5.10;;;10.20;99.90;;;;;;5035932;28;20049;-49
2023/01/05 11:38:29;;;;;;;28.45;5.10;;;10.20;99.90;;;;;;5036905;28;20060;-47
2023/01/05 11:40:59;;;;;;;21.65;4.88;;;10.20;99.90;;;;;;5036158;28;20389;-51
2023/01/05 11:43:28;;;;;;;22.48;5.85;;;10.20;99.90;;;;;;5018047;28;20096;-49
2023/01/05 11:45:58;;;;;;;17.25;4.68;;;10.20;99.90;;;;;;5035840;28;20556;-49
2023/01/05 11:48:30;;;;;;;22.98;4.28;;;10.20;99.90;;;;;;5036045;28;20053;-49
2023/01/05 11:50:57;;;;;;;27.25;4.68;;;10.30;99.90;;;;;;5035514;28;20045;-47
2023/01/05 11:53:36;;;;;;;21.17;4.60;;;10.20;99.90;;;;;;5034777;28;20053;-49
2023/01/05 11:56:19;;;;;;;21.27;5.10;;;10.20;99.90;;;;;;5017245;28;20491;-48
2023/01/05 11:58:46;;;;;;;21.50;4.00;;;10.20;99.90;;;;;;5023861;28;20438;-48
2023/01/05 12:01:31;;;;;;;24.23;4.25;;;10.20;99.90;;;;;;5036255;28;20045;-48
2023/01/05 12:04:01;;;;;;;25.17;4.55;;;10.10;99.90;;;;;;5034839;28;20566;-48
2023/01/05 12:06:35;;;;;;;27.23;5.13;;;10.10;99.90;;;;;;5034217;28;20537;-48
2023/01/05 12:09:21;;;;;;;20.20;4.93;;;10.10;99.90;;;;;;5032853;28;20121;-51
2023/01/05 12:11:59;;;;;;;23.83;5.05;;;10.10;99.90;;;;;;5031918;28;20037;-46
2023/01/05 12:14:37;;;;;;;25.17;5.22;;;10.20;99.90;;;;;;5033880;28;20059;-48
2023/01/05 12:17:13;;;;;;;24.88;5.35;;;10.10;99.90;;;;;;5027647;28;20887;-48
2023/01/05 12:19:42;;;;;;;27.05;6.80;;;10.20;99.90;;;;;;5027618;28;20036;-48
2023/01/05 12:22:32;;;;;;;28.63;6.22;;;10.20;99.90;;;;;;5032069;28;20214;-47
2023/01/05 12:25:19;;;;;;;23.48;5.68;;;10.20;99.90;;;;;;5024111;28;20451;-46
2023/01/05 12:27:54;;;;;;;30.35;6.38;;;10.30;99.90;;;;;;5027242;28;20041;-48
2023/01/05 12:30:58;;;;;;;27.73;5.70;;;10.20;99.90;;;;;;5021201;28;20064;-47
2023/01/05 12:33:32;;;;;;;32.97;6.68;;;10.40;99.90;;;;;;4973080;28;20233;-50
2023/01/05 12:36:07;;;;;;;27.45;5.68;;;10.30;99.90;;;;;;4970772;28;20404;-48
2023/01/05 12:38:47;;;;;;;28.85;6.85;;;10.30;99.90;;;;;;4966262;28;20054;-48
2023/01/05 12:41:24;;;;;;;26.95;7.38;;;10.30;99.90;;;;;;4966799;28;20050;-48
2023/01/05 12:44:00;;;;;;;25.45;6.35;;;10.30;99.90;;;;;;4971649;28;20065;-49
2023/01/05 12:46:37;;;;;;;37.50;6.55;;;10.40;99.90;;;;;;4971400;28;20046;-51
2023/01/05 12:49:11;;;;;;;29.08;6.80;;;10.30;99.90;;;;;;4970289;28;20143;-47
2023/01/05 12:51:48;;;;;;;29.83;6.32;;;10.40;99.90;;;;;;4972023;28;20145;-51
2023/01/05 12:54:21;;;;;;;33.13;6.43;;;10.50;99.90;;;;;;4972177;28;20058;-51
2023/01/05 12:56:52;;;;;;;29.55;5.85;;;10.40;99.90;;;;;;4953099;28;20061;-49
2023/01/05 12:59:33;;;;;;;27.35;7.03;;;10.40;99.90;;;;;;4971634;28;20122;-47
2023/01/05 13:02:21;;;;;;;26.55;5.97;;;10.40;99.90;;;;;;4964314;28;20049;-46
2023/01/05 13:04:53;;;;;;;30.83;6.43;;;10.40;99.90;;;;;;4969592;28;20062;-48
2023/01/05 13:07:30;;;;;;;32.75;6.57;;;10.40;99.90;;;;;;4963819;28;20057;-48
2023/01/05 13:10:04;;;;;;;24.13;5.45;;;10.40;99.90;;;;;;4993591;28;20061;-49
2023/01/05 13:12:32;;;;;;;33.72;6.03;;;10.30;99.90;;;;;;5034456;28;20422;-47
2023/01/05 13:15:40;;;;;;;28.33;5.25;;;10.40;99.90;;;;;;5031802;28;20135;-49
2023/01/05 13:18:13;;;;;;;26.33;5.70;;;10.30;99.90;;;;;;5032088;28;20052;-51
2023/01/05 13:20:44;;;;;;;27.95;5.45;;;10.30;99.90;;;;;;5033037;28;20084;-48
2023/01/05 13:23:20;;;;;;;28.17;5.43;;;10.20;99.90;;;;;;5033304;28;20148;-49
2023/01/05 13:25:52;;;;;;;25.98;5.45;;;10.30;99.90;;;;;;5031310;28;20060;-49
2023/01/05 13:28:20;;;;;;;36.42;6.82;;;10.20;99.90;;;;;;5013635;28;20095;-50
2023/01/05 13:31:27;;;;;;;30.75;6.25;;;10.20;99.90;;;;;;5032282;28;20460;-49
2023/01/05 13:34:08;;;;;;;35.53;8.60;;;10.10;99.90;;;;;;4940625;28;20520;-51
2023/01/05 13:36:54;;;;;;;23.45;6.07;;;10.10;99.90;;;;;;4948853;28;20050;-49
2023/01/05 13:39:31;;;;;;;26.08;5.38;;;10.10;99.90;;;;;;4934624;28;20578;-49
2023/01/05 13:42:23;;;;;;;28.90;6.22;;;10.10;99.90;;;;;;4951198;28;20832;-47